createdAt,value
2022-10-22T00:00:09.201Z,1006.46
2022-10-22T00:01:09.189Z,1006.45
2022-10-22T00:02:09.217Z,1006.53
2022-10-22T00:03:09.253Z,1006.48
2022-10-22T00:04:09.148Z,1006.59
2022-10-22T00:05:09.152Z,1006.65
2022-10-22T00:06:09.130Z,1006.71
2022-10-22T00:07:09.163Z,1006.76
2022-10-22T00:08:09.105Z,1006.84
2022-10-22T00:09:09.173Z,1006.87
2022-10-22T00:10:09.098Z,1006.80
2022-10-22T00:11:09.109Z,1006.80
2022-10-22T00:12:09.087Z,1006.86
2022-10-22T00:13:09.059Z,1006.86
2022-10-22T00:14:09.042Z,1006.86
2022-10-22T00:15:09.032Z,1006.79
2022-10-22T00:16:09.018Z,1006.80
2022-10-22T00:17:11.607Z,1006.88
2022-10-22T00:18:08.998Z,1006.82
2022-10-22T00:19:09.006Z,1006.83
2022-10-22T00:20:08.983Z,1006.84
2022-10-22T00:21:08.977Z,1006.83
2022-10-22T00:22:08.992Z,1006.84
2022-10-22T00:23:08.946Z,1006.82
2022-10-22T00:24:08.936Z,1006.79
2022-10-22T00:25:08.929Z,1006.82
2022-10-22T00:26:08.916Z,1006.85
2022-10-22T00:27:08.934Z,1006.84
2022-10-22T00:28:08.935Z,1006.81
2022-10-22T00:29:08.879Z,1006.86
2022-10-22T00:30:08.870Z,1006.83
2022-10-22T00:31:08.855Z,1006.76
2022-10-22T00:32:08.855Z,1006.81
2022-10-22T00:33:08.873Z,1006.78
2022-10-22T00:34:08.829Z,1006.70
2022-10-22T00:35:08.863Z,1006.69
2022-10-22T00:36:08.806Z,1006.72
2022-10-22T00:37:08.794Z,1006.74
2022-10-22T00:38:08.793Z,1006.70
2022-10-22T00:39:08.791Z,1006.64
2022-10-22T00:40:08.762Z,1006.63
2022-10-22T00:41:08.781Z,1006.66
2022-10-22T00:42:08.752Z,1006.64
2022-10-22T00:43:08.736Z,1006.63
2022-10-22T00:44:08.734Z,1006.65
2022-10-22T00:45:08.741Z,1006.59
2022-10-22T00:46:08.707Z,1006.57
2022-10-22T00:47:08.693Z,1006.52
2022-10-22T00:48:08.681Z,1006.54
2022-10-22T00:49:08.665Z,1006.53
2022-10-22T00:50:08.683Z,1006.49
2022-10-22T00:51:08.667Z,1006.52
2022-10-22T00:52:08.634Z,1006.50
2022-10-22T00:53:08.626Z,1006.50
2022-10-22T00:54:08.607Z,1006.46
2022-10-22T00:55:08.638Z,1006.56
2022-10-22T00:56:08.593Z,1006.46
2022-10-22T00:57:08.586Z,1006.47
2022-10-22T00:58:08.576Z,1006.51
2022-10-22T01:00:08.577Z,1006.50
2022-10-22T01:01:08.631Z,1006.55
2022-10-22T01:02:08.531Z,1006.62
2022-10-22T01:03:08.521Z,1006.69
2022-10-22T01:04:08.517Z,1006.74
2022-10-22T01:05:08.489Z,1006.69
2022-10-22T01:06:08.519Z,1006.70
2022-10-22T01:07:08.502Z,1006.71
2022-10-22T01:08:08.622Z,1006.71
2022-10-22T01:09:08.517Z,1006.71
2022-10-22T01:10:08.443Z,1006.80
2022-10-22T01:11:08.466Z,1006.74
2022-10-22T01:12:08.424Z,1006.76
2022-10-22T01:13:08.428Z,1006.75
2022-10-22T01:14:08.398Z,1006.71
2022-10-22T01:15:08.396Z,1006.71
2022-10-22T01:16:08.405Z,1006.72
2022-10-22T01:17:08.386Z,1006.71
2022-10-22T01:18:08.389Z,1006.71
2022-10-22T01:19:08.350Z,1006.80
2022-10-22T01:20:08.335Z,1006.78
2022-10-22T01:21:08.336Z,1006.87
2022-10-22T01:22:08.309Z,1006.83
2022-10-22T01:23:08.319Z,1006.80
2022-10-22T01:24:08.306Z,1006.78
2022-10-22T01:25:08.266Z,1006.81
2022-10-22T01:26:08.300Z,1006.76
2022-10-22T01:27:08.278Z,1006.70
2022-10-22T01:28:08.270Z,1006.70
2022-10-22T01:29:08.234Z,1006.69
2022-10-22T01:30:08.246Z,1006.70
2022-10-22T01:31:08.237Z,1006.79
2022-10-22T01:32:08.202Z,1006.76
2022-10-22T01:33:08.223Z,1006.71
2022-10-22T01:34:08.179Z,1006.69
2022-10-22T01:35:08.172Z,1006.68
2022-10-22T01:36:08.185Z,1006.74
2022-10-22T01:37:08.153Z,1006.70
2022-10-22T01:38:08.160Z,1006.73
2022-10-22T01:39:08.159Z,1006.69
2022-10-22T01:40:08.120Z,1006.70
2022-10-22T01:41:08.107Z,1006.67
2022-10-22T01:42:08.132Z,1006.73
2022-10-22T01:43:08.105Z,1006.77
2022-10-22T01:44:08.070Z,1006.76
2022-10-22T01:45:08.066Z,1006.74
2022-10-22T01:46:08.060Z,1006.78
2022-10-22T01:47:08.065Z,1006.76
2022-10-22T01:48:08.069Z,1006.75
2022-10-22T01:49:08.018Z,1006.74
2022-10-22T01:50:08.012Z,1006.72
2022-10-22T01:51:08.000Z,1006.66
2022-10-22T01:52:08.004Z,1006.67
2022-10-22T01:53:07.998Z,1006.59
2022-10-22T01:54:07.987Z,1006.58
2022-10-22T01:55:07.974Z,1006.61
2022-10-22T01:56:07.946Z,1006.59
2022-10-22T01:57:07.955Z,1006.62
2022-10-22T01:58:07.925Z,1006.61
2022-10-22T01:59:07.910Z,1006.69
2022-10-22T02:00:07.898Z,1006.65
2022-10-22T02:01:07.954Z,1006.64
2022-10-22T02:02:07.897Z,1006.64
2022-10-22T02:03:07.903Z,1006.67
2022-10-22T02:04:07.861Z,1006.65
2022-10-22T02:05:07.851Z,1006.60
2022-10-22T02:06:07.829Z,1006.56
2022-10-22T02:07:07.821Z,1006.60
2022-10-22T02:08:07.840Z,1006.51
2022-10-22T02:09:07.882Z,1006.57
2022-10-22T02:10:07.799Z,1006.63
2022-10-22T02:11:07.810Z,1006.66
2022-10-22T02:12:07.775Z,1006.67
2022-10-22T02:13:07.796Z,1006.75
2022-10-22T02:14:07.750Z,1006.79
2022-10-22T02:15:07.733Z,1006.88
2022-10-22T02:16:07.730Z,1006.92
2022-10-22T02:17:07.715Z,1006.96
2022-10-22T02:18:07.750Z,1006.91
2022-10-22T02:19:07.691Z,1006.96
2022-10-22T02:20:07.686Z,1006.93
2022-10-22T02:22:07.661Z,1006.87
2022-10-22T02:23:07.668Z,1006.88
2022-10-22T02:24:07.666Z,1006.80
2022-10-22T02:25:07.631Z,1006.72
2022-10-22T02:26:07.618Z,1006.78
2022-10-22T02:27:07.626Z,1006.73
2022-10-22T02:28:07.637Z,1006.68
2022-10-22T02:29:07.612Z,1006.72
2022-10-22T02:30:07.641Z,1006.75
2022-10-22T02:31:07.563Z,1006.72
2022-10-22T02:32:07.579Z,1006.66
2022-10-22T02:33:07.548Z,1006.74
2022-10-22T02:34:07.563Z,1006.75
2022-10-22T02:35:07.528Z,1006.69
2022-10-22T02:36:07.516Z,1006.65
2022-10-22T02:37:07.516Z,1006.74
2022-10-22T02:38:07.494Z,1006.69
2022-10-22T02:39:07.575Z,1006.69
2022-10-22T02:40:07.471Z,1006.69
2022-10-22T02:41:07.464Z,1006.71
2022-10-22T02:42:07.445Z,1006.70
2022-10-22T02:43:07.453Z,1006.70
2022-10-22T02:44:07.448Z,1006.67
2022-10-22T02:45:07.414Z,1006.70
2022-10-22T02:46:07.397Z,1006.71
2022-10-22T02:47:07.387Z,1006.74
2022-10-22T02:48:07.506Z,1006.75
2022-10-22T02:49:07.394Z,1006.72
2022-10-22T02:50:09.629Z,1006.70
2022-10-22T02:51:07.349Z,1006.71
2022-10-22T02:52:07.328Z,1006.75
2022-10-22T02:53:07.327Z,1006.72
2022-10-22T02:54:07.330Z,1006.75
2022-10-22T02:55:07.307Z,1006.73
2022-10-22T02:56:07.292Z,1006.75
2022-10-22T02:57:07.400Z,1006.73
2022-10-22T02:58:07.278Z,1006.80
2022-10-22T02:59:07.310Z,1006.76
2022-10-22T03:00:07.262Z,1006.78
2022-10-22T03:01:07.425Z,1006.81
2022-10-22T03:02:07.225Z,1006.79
2022-10-22T03:03:07.216Z,1006.84
2022-10-22T03:04:07.205Z,1006.83
2022-10-22T03:05:07.220Z,1006.87
2022-10-22T03:06:07.182Z,1006.88
2022-10-22T03:07:07.174Z,1006.86
2022-10-22T03:08:07.163Z,1006.84
2022-10-22T03:09:07.192Z,1006.85
2022-10-22T03:10:07.166Z,1006.84
2022-10-22T03:11:07.175Z,1006.80
2022-10-22T03:12:07.124Z,1006.77
2022-10-22T03:13:07.121Z,1006.84
2022-10-22T03:14:07.110Z,1006.80
2022-10-22T03:15:07.108Z,1006.75
2022-10-22T03:16:07.071Z,1006.78
2022-10-22T03:17:07.063Z,1006.74
2022-10-22T03:18:07.056Z,1006.75
2022-10-22T03:19:07.062Z,1006.67
2022-10-22T03:20:07.046Z,1006.70
2022-10-22T03:21:07.019Z,1006.69
2022-10-22T03:22:07.003Z,1006.68
2022-10-22T03:23:06.998Z,1006.71
2022-10-22T03:24:07.029Z,1006.72
2022-10-22T03:25:06.995Z,1006.72
2022-10-22T03:26:06.968Z,1006.66
2022-10-22T03:27:06.953Z,1006.61
2022-10-22T03:28:06.941Z,1006.67
2022-10-22T03:29:06.966Z,1006.62
2022-10-22T03:30:06.950Z,1006.62
2022-10-22T03:31:06.923Z,1006.55
2022-10-22T03:32:06.899Z,1006.58
2022-10-22T03:33:06.884Z,1006.60
2022-10-22T03:34:06.872Z,1006.60
2022-10-22T03:35:06.903Z,1006.61
2022-10-22T03:36:06.864Z,1006.61
2022-10-22T03:37:06.839Z,1006.63
2022-10-22T03:38:06.831Z,1006.62
2022-10-22T03:39:06.817Z,1006.66
2022-10-22T03:40:06.828Z,1006.70
2022-10-22T03:41:06.797Z,1006.71
2022-10-22T03:42:06.787Z,1006.72
2022-10-22T03:43:06.775Z,1006.73
2022-10-22T03:44:06.769Z,1006.67
2022-10-22T03:45:06.786Z,1006.73
2022-10-22T03:46:06.743Z,1006.67
2022-10-22T03:47:06.778Z,1006.66
2022-10-22T03:48:06.716Z,1006.61
2022-10-22T03:49:06.710Z,1006.66
2022-10-22T03:50:06.697Z,1006.67
2022-10-22T03:51:06.692Z,1006.66
2022-10-22T03:52:06.698Z,1006.65
2022-10-22T03:53:06.669Z,1006.75
2022-10-22T03:54:06.657Z,1006.77
2022-10-22T03:55:06.648Z,1006.73
2022-10-22T03:56:06.659Z,1006.72
2022-10-22T03:57:06.645Z,1006.75
2022-10-22T03:58:06.615Z,1006.83
2022-10-22T03:59:06.600Z,1006.81
2022-10-22T04:00:06.590Z,1006.80
2022-10-22T04:01:06.639Z,1006.86
2022-10-22T04:02:06.571Z,1006.75
2022-10-22T04:03:06.577Z,1006.83
2022-10-22T04:04:06.553Z,1006.85
2022-10-22T04:05:06.625Z,1006.84
2022-10-22T04:06:06.552Z,1006.84
2022-10-22T04:07:06.515Z,1006.85
2022-10-22T04:08:06.497Z,1006.87
2022-10-22T04:09:06.575Z,1006.90
2022-10-22T04:10:06.497Z,1006.87
2022-10-22T04:11:06.489Z,1006.92
2022-10-22T04:12:06.462Z,1006.93
2022-10-22T04:13:06.446Z,1006.99
2022-10-22T04:14:06.482Z,1006.97
2022-10-22T04:15:06.424Z,1006.97
2022-10-22T04:16:06.443Z,1007.01
2022-10-22T04:17:06.403Z,1007.01
2022-10-22T04:18:06.410Z,1007.01
2022-10-22T04:19:06.407Z,1007.00
2022-10-22T04:20:06.366Z,1006.98
2022-10-22T04:21:06.386Z,1007.01
2022-10-22T04:22:06.353Z,1007.01
2022-10-22T04:23:06.338Z,1007.07
2022-10-22T04:24:06.320Z,1007.07
2022-10-22T04:25:06.339Z,1007.15
2022-10-22T04:26:06.305Z,1007.07
2022-10-22T04:27:06.327Z,1007.07
2022-10-22T04:28:06.278Z,1007.13
2022-10-22T04:29:06.276Z,1007.19
2022-10-22T04:30:06.255Z,1007.20
2022-10-22T04:31:06.248Z,1007.13
2022-10-22T04:32:06.269Z,1007.19
2022-10-22T04:33:06.230Z,1007.15
2022-10-22T04:34:06.221Z,1007.20
2022-10-22T04:35:06.256Z,1007.12
2022-10-22T04:36:06.204Z,1007.12
2022-10-22T04:37:06.190Z,1007.17
2022-10-22T04:38:06.175Z,1007.17
2022-10-22T04:39:06.184Z,1007.19
2022-10-22T04:40:06.167Z,1007.15
2022-10-22T04:41:06.144Z,1007.15
2022-10-22T04:42:06.150Z,1007.14
2022-10-22T04:43:06.120Z,1007.16
2022-10-22T04:44:06.128Z,1007.17
2022-10-22T04:45:06.091Z,1007.11
2022-10-22T04:46:06.079Z,1007.08
2022-10-22T04:47:06.093Z,1007.12
2022-10-22T04:48:06.065Z,1007.10
2022-10-22T04:49:06.061Z,1007.05
2022-10-22T04:50:06.066Z,1007.06
2022-10-22T04:51:06.050Z,1007.10
2022-10-22T04:52:06.051Z,1007.01
2022-10-22T04:53:06.015Z,1007.10
2022-10-22T04:54:06.023Z,1007.02
2022-10-22T04:55:05.992Z,1007.03
2022-10-22T04:56:05.974Z,1006.97
2022-10-22T04:57:05.967Z,1007.01
2022-10-22T04:58:05.954Z,1006.95
2022-10-22T04:59:05.981Z,1006.97
2022-10-22T05:00:05.937Z,1006.89
2022-10-22T05:01:06.016Z,1006.94
2022-10-22T05:02:05.907Z,1006.91
2022-10-22T05:03:05.892Z,1006.92
2022-10-22T05:04:05.909Z,1006.91
2022-10-22T05:05:05.879Z,1006.90
2022-10-22T05:06:05.935Z,1006.90
2022-10-22T05:07:05.888Z,1006.95
2022-10-22T05:08:05.844Z,1006.98
2022-10-22T05:09:05.994Z,1007.01
2022-10-22T05:10:05.822Z,1007.02
2022-10-22T05:11:05.823Z,1007.05
2022-10-22T05:12:05.803Z,1007.04
2022-10-22T05:13:05.793Z,1007.05
2022-10-22T05:14:05.814Z,1007.02
2022-10-22T05:15:05.768Z,1007.00
2022-10-22T05:16:05.762Z,1007.06
2022-10-22T05:17:05.748Z,1007.05
2022-10-22T05:18:05.764Z,1007.08
2022-10-22T05:19:05.728Z,1007.16
2022-10-22T05:20:05.711Z,1007.09
2022-10-22T05:21:05.694Z,1007.12
2022-10-22T05:22:05.721Z,1007.12
2022-10-22T05:23:05.720Z,1007.12
2022-10-22T05:24:05.670Z,1007.12
2022-10-22T05:25:05.668Z,1007.12
2022-10-22T05:26:05.649Z,1007.13
2022-10-22T05:27:05.721Z,1007.11
2022-10-22T05:28:05.624Z,1007.09
2022-10-22T05:29:05.617Z,1007.17
2022-10-22T05:30:05.613Z,1007.13
2022-10-22T05:31:05.592Z,1007.15
2022-10-22T05:32:05.583Z,1007.13
2022-10-22T05:33:05.593Z,1007.15
2022-10-22T05:34:05.558Z,1007.18
2022-10-22T05:35:05.551Z,1007.11
2022-10-22T05:36:05.539Z,1007.13
2022-10-22T05:37:05.529Z,1007.16
2022-10-22T05:38:05.545Z,1007.13
2022-10-22T05:39:05.522Z,1007.10
2022-10-22T05:40:19.084Z,1007.16
2022-10-22T05:41:06.489Z,1007.17
2022-10-22T05:42:05.475Z,1007.16
2022-10-22T05:43:05.467Z,1007.12
2022-10-22T05:44:05.470Z,1007.26
2022-10-22T05:45:05.437Z,1007.18
2022-10-22T05:46:05.433Z,1007.17
2022-10-22T05:47:05.420Z,1007.17
2022-10-22T05:48:05.406Z,1007.25
2022-10-22T05:49:05.425Z,1007.25
2022-10-22T05:50:05.381Z,1007.28
2022-10-22T05:51:05.377Z,1007.24
2022-10-22T05:52:05.392Z,1007.28
2022-10-22T05:53:05.356Z,1007.28
2022-10-22T05:54:05.367Z,1007.28
2022-10-22T05:55:05.347Z,1007.33
2022-10-22T05:56:05.321Z,1007.31
2022-10-22T05:57:05.309Z,1007.32
2022-10-22T05:58:05.294Z,1007.33
2022-10-22T05:59:05.361Z,1007.34
2022-10-22T06:00:05.282Z,1007.38
2022-10-22T06:01:05.263Z,1007.39
2022-10-22T06:02:05.298Z,1007.32
2022-10-22T06:03:05.240Z,1007.37
2022-10-22T06:04:05.258Z,1007.31
2022-10-22T06:05:05.220Z,1007.34
2022-10-22T06:06:05.209Z,1007.38
2022-10-22T06:07:05.194Z,1007.28
2022-10-22T06:08:05.199Z,1007.34
2022-10-22T06:09:05.288Z,1007.37
2022-10-22T06:10:05.158Z,1007.42
2022-10-22T06:11:05.177Z,1007.42
2022-10-22T06:12:05.139Z,1007.41
2022-10-22T06:13:05.157Z,1007.46
2022-10-22T06:14:05.174Z,1007.45
2022-10-22T06:15:05.107Z,1007.54
2022-10-22T06:16:05.095Z,1007.50
2022-10-22T06:17:05.091Z,1007.51
2022-10-22T06:18:05.077Z,1007.47
2022-10-22T06:19:05.337Z,1007.48
2022-10-22T06:21:05.061Z,1007.41
2022-10-22T06:22:05.062Z,1007.49
2022-10-22T06:23:05.024Z,1007.51
2022-10-22T06:24:05.012Z,1007.51
2022-10-22T06:25:05.008Z,1007.48
2022-10-22T06:26:04.991Z,1007.48
2022-10-22T06:27:05.024Z,1007.50
2022-10-22T06:28:04.964Z,1007.49
2022-10-22T06:29:04.984Z,1007.52
2022-10-22T06:30:04.943Z,1007.53
2022-10-22T06:31:04.937Z,1007.57
2022-10-22T06:32:04.919Z,1007.59
2022-10-22T06:33:04.917Z,1007.55
2022-10-22T06:34:04.932Z,1007.54
2022-10-22T06:35:04.892Z,1007.56
2022-10-22T06:36:07.398Z,1007.64
2022-10-22T06:37:04.865Z,1007.56
2022-10-22T06:38:04.859Z,1007.59
2022-10-22T06:39:04.886Z,1007.58
2022-10-22T06:40:04.835Z,1007.64
2022-10-22T06:41:04.835Z,1007.69
2022-10-22T06:42:04.829Z,1007.65
2022-10-22T06:43:04.855Z,1007.66
2022-10-22T06:44:04.809Z,1007.69
2022-10-22T06:45:04.790Z,1007.65
2022-10-22T06:46:04.772Z,1007.72
2022-10-22T06:47:04.761Z,1007.65
2022-10-22T06:48:04.790Z,1007.72
2022-10-22T06:49:04.764Z,1007.76
2022-10-22T06:50:04.740Z,1007.72
2022-10-22T06:51:04.719Z,1007.74
2022-10-22T06:52:04.701Z,1007.78
2022-10-22T06:53:04.691Z,1007.78
2022-10-22T06:54:04.711Z,1007.76
2022-10-22T06:55:04.709Z,1007.76
2022-10-22T06:56:04.661Z,1007.80
2022-10-22T06:57:04.661Z,1007.71
2022-10-22T06:58:04.640Z,1007.71
2022-10-22T06:59:04.647Z,1007.75
2022-10-22T07:00:04.665Z,1007.75
2022-10-22T07:01:04.688Z,1007.73
2022-10-22T07:02:04.637Z,1007.70
2022-10-22T07:03:04.601Z,1007.72
2022-10-22T07:04:04.573Z,1007.73
2022-10-22T07:05:04.592Z,1007.78
2022-10-22T07:06:04.561Z,1007.75
2022-10-22T07:07:04.549Z,1007.81
2022-10-22T07:08:04.535Z,1007.78
2022-10-22T07:09:04.670Z,1007.78
2022-10-22T07:10:04.545Z,1007.84
2022-10-22T07:11:04.497Z,1007.80
2022-10-22T07:12:04.488Z,1007.85
2022-10-22T07:13:04.502Z,1007.83
2022-10-22T07:14:04.475Z,1007.84
2022-10-22T07:15:04.498Z,1007.83
2022-10-22T07:16:04.444Z,1007.86
2022-10-22T07:17:04.437Z,1007.87
2022-10-22T07:18:04.421Z,1007.90
2022-10-22T07:19:04.410Z,1007.90
2022-10-22T07:20:04.441Z,1007.92
2022-10-22T07:21:04.396Z,1008.03
2022-10-22T07:22:04.373Z,1008.05
2022-10-22T07:23:04.368Z,1008.01
2022-10-22T07:24:04.384Z,1008.04
2022-10-22T07:25:07.348Z,1008.07
2022-10-22T07:26:04.414Z,1008.05
2022-10-22T07:27:06.892Z,1008.04
2022-10-22T07:28:04.319Z,1008.05
2022-10-22T07:29:04.304Z,1008.07
2022-10-22T07:30:04.314Z,1008.09
2022-10-22T07:31:04.295Z,1008.10
2022-10-22T07:32:04.271Z,1008.09
2022-10-22T07:33:04.258Z,1008.16
2022-10-22T07:34:04.262Z,1008.16
2022-10-22T07:35:04.266Z,1008.12
2022-10-22T07:36:04.247Z,1008.15
2022-10-22T07:37:04.210Z,1008.16
2022-10-22T07:38:04.226Z,1008.20
2022-10-22T07:39:04.199Z,1008.16
2022-10-22T07:40:04.326Z,1008.19
2022-10-22T07:41:04.232Z,1008.21
2022-10-22T07:42:04.159Z,1008.27
2022-10-22T07:43:04.153Z,1008.25
2022-10-22T07:44:04.140Z,1008.33
2022-10-22T07:45:04.136Z,1008.38
2022-10-22T07:46:04.132Z,1008.32
2022-10-22T07:47:04.124Z,1008.37
2022-10-22T07:48:04.143Z,1008.34
2022-10-22T07:49:04.088Z,1008.34
2022-10-22T07:50:04.084Z,1008.32
2022-10-22T07:51:04.067Z,1008.32
2022-10-22T07:52:04.054Z,1008.42
2022-10-22T07:53:04.062Z,1008.36
2022-10-22T07:54:04.047Z,1008.41
2022-10-22T07:55:04.026Z,1008.46
2022-10-22T07:56:04.008Z,1008.42
2022-10-22T07:57:04.020Z,1008.41
2022-10-22T07:58:03.988Z,1008.43
2022-10-22T07:59:04.015Z,1008.45
2022-10-22T08:00:03.978Z,1008.45
2022-10-22T08:01:03.994Z,1008.45
2022-10-22T08:02:03.945Z,1008.46
2022-10-22T08:03:03.954Z,1008.44
2022-10-22T08:04:03.957Z,1008.42
2022-10-22T08:05:03.917Z,1008.44
2022-10-22T08:06:03.941Z,1008.49
2022-10-22T08:07:03.907Z,1008.47
2022-10-22T08:08:03.880Z,1008.52
2022-10-22T08:09:03.937Z,1008.47
2022-10-22T08:10:03.891Z,1008.53
2022-10-22T08:11:03.888Z,1008.50
2022-10-22T08:12:03.830Z,1008.48
2022-10-22T08:13:03.822Z,1008.56
2022-10-22T08:14:03.849Z,1008.53
2022-10-22T08:15:03.801Z,1008.51
2022-10-22T08:16:03.822Z,1008.53
2022-10-22T08:17:03.789Z,1008.52
2022-10-22T08:18:03.777Z,1008.56
2022-10-22T08:19:03.800Z,1008.55
2022-10-22T08:20:03.759Z,1008.51
2022-10-22T08:21:03.778Z,1008.51
2022-10-22T08:22:03.749Z,1008.47
2022-10-22T08:23:03.710Z,1008.48
2022-10-22T08:24:03.738Z,1008.51
2022-10-22T08:25:03.746Z,1008.51
2022-10-22T08:26:03.692Z,1008.57
2022-10-22T08:27:03.674Z,1008.55
2022-10-22T08:28:03.675Z,1008.60
2022-10-22T08:29:03.649Z,1008.59
2022-10-22T08:30:03.647Z,1008.56
2022-10-22T08:31:03.625Z,1008.58
2022-10-22T08:32:03.615Z,1008.58
2022-10-22T08:33:03.628Z,1008.58
2022-10-22T08:34:03.592Z,1008.64
2022-10-22T08:35:03.598Z,1008.57
2022-10-22T08:36:03.595Z,1008.69
2022-10-22T08:37:03.567Z,1008.70
2022-10-22T08:38:03.581Z,1008.71
2022-10-22T08:39:03.544Z,1008.70
2022-10-22T08:40:03.534Z,1008.71
2022-10-22T08:41:03.516Z,1008.77
2022-10-22T08:42:03.526Z,1008.76
2022-10-22T08:43:03.527Z,1008.78
2022-10-22T08:44:03.542Z,1008.86
2022-10-22T08:45:03.482Z,1008.84
2022-10-22T08:46:03.472Z,1008.81
2022-10-22T08:47:03.462Z,1008.89
2022-10-22T08:48:03.470Z,1008.87
2022-10-22T08:49:03.487Z,1008.84
2022-10-22T08:50:03.435Z,1008.90
2022-10-22T08:51:03.435Z,1008.87
2022-10-22T08:52:03.402Z,1008.83
2022-10-22T08:53:03.386Z,1008.92
2022-10-22T08:54:03.424Z,1008.90
2022-10-22T08:55:03.363Z,1008.91
2022-10-22T08:56:03.370Z,1008.93
2022-10-22T08:57:03.349Z,1008.94
2022-10-22T08:58:03.360Z,1008.91
2022-10-22T08:59:03.326Z,1008.92
2022-10-22T09:00:03.344Z,1008.91
2022-10-22T09:01:03.302Z,1008.95
2022-10-22T09:02:03.296Z,1008.93
2022-10-22T09:03:03.315Z,1008.94
2022-10-22T09:04:03.285Z,1008.98
2022-10-22T09:05:03.274Z,1008.96
2022-10-22T09:06:03.300Z,1009.01
2022-10-22T09:07:03.265Z,1008.98
2022-10-22T09:08:03.267Z,1009.00
2022-10-22T09:09:03.336Z,1009.05
2022-10-22T09:10:03.211Z,1009.00
2022-10-22T09:11:03.209Z,1009.01
2022-10-22T09:12:03.220Z,1009.03
2022-10-22T09:13:03.187Z,1009.04
2022-10-22T09:14:03.243Z,1009.05
2022-10-22T09:15:03.187Z,1009.04
2022-10-22T09:16:03.168Z,1008.98
2022-10-22T09:17:03.138Z,1008.99
2022-10-22T09:18:03.128Z,1008.95
2022-10-22T09:19:03.113Z,1008.99
2022-10-22T09:20:03.114Z,1009.01
2022-10-22T09:21:03.119Z,1009.07
2022-10-22T09:22:03.102Z,1009.07
2022-10-22T09:23:03.092Z,1009.05
2022-10-22T09:24:03.068Z,1009.11
2022-10-22T09:25:03.049Z,1009.09
2022-10-22T09:26:03.069Z,1009.05
2022-10-22T09:27:03.060Z,1009.10
2022-10-22T09:28:03.024Z,1009.08
2022-10-22T09:29:03.023Z,1009.08
2022-10-22T09:30:03.021Z,1009.02
2022-10-22T09:31:03.028Z,1009.07
2022-10-22T09:32:03.002Z,1009.09
2022-10-22T09:33:02.957Z,1009.14
2022-10-22T09:34:02.950Z,1009.14
2022-10-22T09:35:02.935Z,1009.14
2022-10-22T09:36:02.930Z,1009.10
2022-10-22T09:37:02.989Z,1009.15
2022-10-22T09:38:02.906Z,1009.08
2022-10-22T09:39:03.060Z,1009.15
2022-10-22T09:40:02.885Z,1009.13
2022-10-22T09:41:02.997Z,1009.19
2022-10-22T09:42:02.895Z,1009.19
2022-10-22T09:43:02.863Z,1009.18
2022-10-22T09:44:02.845Z,1009.17
2022-10-22T09:45:02.835Z,1009.18
2022-10-22T09:46:02.853Z,1009.21
2022-10-22T09:47:02.814Z,1009.17
2022-10-22T09:48:02.929Z,1009.15
2022-10-22T09:49:02.794Z,1009.19
2022-10-22T09:50:02.779Z,1009.16
2022-10-22T09:51:02.767Z,1009.20
2022-10-22T09:52:02.791Z,1009.23
2022-10-22T09:53:02.746Z,1009.20
2022-10-22T09:54:02.742Z,1009.21
2022-10-22T09:55:02.748Z,1009.18
2022-10-22T09:56:02.738Z,1009.26
2022-10-22T09:57:02.722Z,1009.20
2022-10-22T09:58:02.696Z,1009.31
2022-10-22T09:59:02.707Z,1009.25
2022-10-22T10:00:02.679Z,1009.30
2022-10-22T10:01:02.802Z,1009.31
2022-10-22T10:02:13.668Z,1009.32
2022-10-22T10:03:03.692Z,1009.37
2022-10-22T10:04:04.556Z,1009.28
2022-10-22T10:05:03.621Z,1009.36
2022-10-22T10:06:05.064Z,1009.32
2022-10-22T10:07:02.590Z,1009.34
2022-10-22T10:08:02.603Z,1009.35
2022-10-22T10:09:02.654Z,1009.29
2022-10-22T10:10:02.565Z,1009.35
2022-10-22T10:11:02.571Z,1009.35
2022-10-22T10:12:02.583Z,1009.38
2022-10-22T10:13:02.519Z,1009.36
2022-10-22T10:14:02.525Z,1009.38
2022-10-22T10:15:02.518Z,1009.38
2022-10-22T10:16:02.500Z,1009.35
2022-10-22T10:17:02.510Z,1009.40
2022-10-22T10:18:02.478Z,1009.30
2022-10-22T10:19:02.473Z,1009.39
2022-10-22T10:20:04.065Z,1009.36
2022-10-22T10:21:02.649Z,1009.33
2022-10-22T10:22:02.453Z,1009.41
2022-10-22T10:23:02.412Z,1009.40
2022-10-22T10:24:02.403Z,1009.39
2022-10-22T10:25:02.398Z,1009.41
2022-10-22T10:26:02.416Z,1009.44
2022-10-22T10:27:02.413Z,1009.39
2022-10-22T10:28:02.464Z,1009.38
2022-10-22T10:29:02.351Z,1009.40
2022-10-22T10:30:02.367Z,1009.40
2022-10-22T10:31:02.341Z,1009.40
2022-10-22T10:32:02.347Z,1009.42
2022-10-22T10:33:02.311Z,1009.37
2022-10-22T10:34:02.312Z,1009.32
2022-10-22T10:35:02.281Z,1009.36
2022-10-22T10:36:02.272Z,1009.34
2022-10-22T10:37:02.258Z,1009.33
2022-10-22T10:38:02.282Z,1009.30
2022-10-22T10:39:02.254Z,1009.34
2022-10-22T10:40:02.259Z,1009.33
2022-10-22T10:41:02.250Z,1009.33
2022-10-22T10:42:02.206Z,1009.31
2022-10-22T10:43:02.214Z,1009.26
2022-10-22T10:44:02.185Z,1009.37
2022-10-22T10:45:02.185Z,1009.31
2022-10-22T10:46:02.216Z,1009.34
2022-10-22T10:47:02.154Z,1009.32
2022-10-22T10:48:02.154Z,1009.38
2022-10-22T10:49:02.155Z,1009.33
2022-10-22T10:50:02.117Z,1009.35
2022-10-22T10:51:02.143Z,1009.36
2022-10-22T10:52:02.093Z,1009.38
2022-10-22T10:53:02.096Z,1009.34
2022-10-22T10:54:02.090Z,1009.37
2022-10-22T10:55:02.070Z,1009.34
2022-10-22T10:56:02.106Z,1009.36
2022-10-22T10:57:02.098Z,1009.34
2022-10-22T10:58:02.081Z,1009.38
2022-10-22T10:59:02.050Z,1009.40
2022-10-22T11:00:02.012Z,1009.46
2022-10-22T11:01:02.013Z,1009.35
2022-10-22T11:02:02.019Z,1009.40
2022-10-22T11:03:01.986Z,1009.36
2022-10-22T11:04:01.984Z,1009.39
2022-10-22T11:05:01.952Z,1009.40
2022-10-22T11:06:01.958Z,1009.43
2022-10-22T11:07:11.161Z,1009.38
2022-10-22T11:08:02.925Z,1009.43
2022-10-22T11:09:02.011Z,1009.42
2022-10-22T11:10:01.903Z,1009.44
2022-10-22T11:11:01.912Z,1009.36
2022-10-22T11:12:01.902Z,1009.43
2022-10-22T11:13:01.870Z,1009.38
2022-10-22T11:14:01.898Z,1009.35
2022-10-22T11:15:01.908Z,1009.35
2022-10-22T11:16:01.864Z,1009.37
2022-10-22T11:17:01.858Z,1009.37
2022-10-22T11:18:01.816Z,1009.37
2022-10-22T11:19:01.811Z,1009.39
2022-10-22T11:20:01.819Z,1009.35
2022-10-22T11:21:01.832Z,1009.38
2022-10-22T11:22:01.795Z,1009.36
2022-10-22T11:23:19.017Z,1009.36
2022-10-22T11:24:02.753Z,1009.40
2022-10-22T11:25:01.748Z,1009.42
2022-10-22T11:26:01.764Z,1009.43
2022-10-22T11:27:01.765Z,1009.35
2022-10-22T11:28:07.786Z,1009.37
2022-10-22T11:29:02.698Z,1009.36
2022-10-22T11:30:01.684Z,1009.40
2022-10-22T11:31:01.707Z,1009.43
2022-10-22T11:32:01.699Z,1009.40
2022-10-22T11:33:01.680Z,1009.44
2022-10-22T11:34:09.989Z,1009.49
2022-10-22T11:35:02.632Z,1009.46
2022-10-22T11:36:01.652Z,1009.46
2022-10-22T11:37:01.612Z,1009.43
2022-10-22T11:38:01.599Z,1009.47
2022-10-22T11:39:01.590Z,1009.43
2022-10-22T11:40:01.576Z,1009.39
2022-10-22T11:41:01.578Z,1009.49
2022-10-22T11:42:01.600Z,1009.47
2022-10-22T11:43:01.618Z,1009.45
2022-10-22T11:44:01.536Z,1009.46
2022-10-22T11:45:01.546Z,1009.42
2022-10-22T11:46:01.517Z,1009.40
2022-10-22T11:47:01.549Z,1009.41
2022-10-22T11:48:01.516Z,1009.43
2022-10-22T11:49:01.501Z,1009.46
2022-10-22T11:50:01.479Z,1009.42
2022-10-22T11:51:01.467Z,1009.46
2022-10-22T11:52:04.314Z,1009.43
2022-10-22T11:53:01.551Z,1009.43
2022-10-22T11:54:01.427Z,1009.41
2022-10-22T11:55:01.418Z,1009.44
2022-10-22T11:56:01.438Z,1009.38
2022-10-22T11:57:01.401Z,1009.45
2022-10-22T11:58:01.410Z,1009.40
2022-10-22T11:59:01.398Z,1009.44
2022-10-22T12:00:01.367Z,1009.44
2022-10-22T12:01:01.349Z,1009.42
2022-10-22T12:02:01.375Z,1009.44
2022-10-22T12:03:01.349Z,1009.41
2022-10-22T12:04:01.359Z,1009.44
2022-10-22T12:05:01.313Z,1009.52
2022-10-22T12:06:01.298Z,1009.45
2022-10-22T12:07:01.287Z,1009.48
2022-10-22T12:08:01.283Z,1009.46